Teaneck, New Jersey
Current Conditions -  °F | °C
As of 11:51 PM on Monday 20 Oct 2014 (Local Time) from KTEB Reporting Station
Few Clouds Few Clouds  
Wind Chill: 54°   Ceiling: Unl
Heat Index: 54°   Visibility: 10mi
Dew Point: 44°   Wind: 5mph
Humidity: 69%   Direction: 210°SSW
Pressure: 29.96"   Gusts: NA
Location:  40.88°N, 74.01°W
Report Text: KTEB 210351Z 21004KT 10SM FEW050 12/07 A2996 RMK AO2 SLP144 T01220067
Loading
Personal Weather Stations






























Interactive Weather Map
Tropical Storm Tracking
New forecast layout! Learn more

10-Day Weather Forecast

Advertisements
Track Severe Weather on mobile